createdAt,value
2017-05-28T00:00:08.500Z,95722.31
2017-05-28T00:02:36.042Z,95728.79
2017-05-28T00:05:03.594Z,95707.05
2017-05-28T00:07:31.203Z,95718.48
2017-05-28T00:09:58.743Z,95714.16
2017-05-28T00:12:26.289Z,95732.05
2017-05-28T00:14:54.046Z,95722.73
2017-05-28T00:17:21.598Z,95710.22
2017-05-28T00:19:49.141Z,95699.34
2017-05-28T00:22:16.798Z,95699.80
2017-05-28T00:24:44.711Z,95704.93
2017-05-28T00:27:12.491Z,95724.91
2017-05-28T00:29:40.068Z,95725.41
2017-05-28T00:32:07.666Z,95727.20
2017-05-28T00:34:35.564Z,95727.26
2017-05-28T00:37:03.115Z,95713.09
2017-05-28T00:39:30.732Z,95718.23
2017-05-28T00:41:58.282Z,95712.95
2017-05-28T00:44:26.181Z,95706.26
2017-05-28T00:46:53.789Z,95714.52
2017-05-28T00:49:21.416Z,95729.72
2017-05-28T00:51:48.970Z,95723.12
2017-05-28T00:54:16.770Z,95719.85
2017-05-28T00:56:44.317Z,95723.91
2017-05-28T00:59:11.868Z,95720.13
2017-05-28T01:01:39.445Z,95722.72
2017-05-28T01:04:07.264Z,95723.59
2017-05-28T01:06:34.815Z,95727.03
2017-05-28T01:09:02.735Z,95724.96
2017-05-28T01:11:30.358Z,95731.96
2017-05-28T01:13:57.952Z,95720.67
2017-05-28T01:16:26.381Z,95727.88
2017-05-28T01:18:54.160Z,95725.22
2017-05-28T01:21:21.765Z,95737.01
2017-05-28T01:23:49.338Z,95729.66
2017-05-28T01:26:17.119Z,95731.69
2017-05-28T01:28:44.942Z,95729.70
2017-05-28T01:31:12.540Z,95738.23
2017-05-28T01:33:40.092Z,95734.24
2017-05-28T01:36:07.632Z,95732.20
2017-05-28T01:38:35.238Z,95727.19
2017-05-28T01:41:02.809Z,95729.76
2017-05-28T01:43:30.363Z,95732.37
2017-05-28T01:45:57.962Z,95734.80
2017-05-28T01:48:25.837Z,95679.91
2017-05-28T01:50:53.385Z,95737.94
2017-05-28T01:53:20.988Z,95734.56
2017-05-28T01:55:48.537Z,95730.42
2017-05-28T01:58:16.183Z,95733.19
2017-05-28T02:00:43.907Z,95734.78
2017-05-28T02:03:11.457Z,95730.72
2017-05-28T02:05:39.453Z,95741.89
2017-05-28T02:08:07.046Z,95736.73
2017-05-28T02:10:34.599Z,95737.55
2017-05-28T02:13:02.375Z,95740.08
2017-05-28T02:15:29.963Z,95747.73
2017-05-28T02:17:57.504Z,95750.34
2017-05-28T02:20:25.051Z,95747.82
2017-05-28T02:22:52.634Z,95742.45
2017-05-28T02:25:20.175Z,95750.30
2017-05-28T02:27:48.015Z,95746.66
2017-05-28T02:30:15.747Z,95750.47
2017-05-28T02:32:43.296Z,95741.25
2017-05-28T02:35:10.839Z,95748.54
2017-05-28T02:37:38.455Z,95744.27
2017-05-28T02:40:06.003Z,95748.89
2017-05-28T02:42:33.546Z,95755.16
2017-05-28T02:45:01.128Z,95754.81
2017-05-28T02:47:28.672Z,95759.54
2017-05-28T02:49:56.246Z,95764.77
2017-05-28T02:52:23.859Z,95762.90
2017-05-28T02:54:51.398Z,95763.22
2017-05-28T02:57:19.173Z,95764.06
2017-05-28T02:59:46.754Z,95757.94
2017-05-28T03:02:14.378Z,95761.10
2017-05-28T03:04:41.938Z,95766.96
2017-05-28T03:07:09.794Z,95760.30
2017-05-28T03:09:37.405Z,95764.47
2017-05-28T03:12:04.963Z,95780.02
2017-05-28T03:14:32.529Z,95780.69
2017-05-28T03:17:00.113Z,95776.86
2017-05-28T03:19:27.659Z,95773.72
2017-05-28T03:21:55.244Z,95778.11
2017-05-28T03:24:22.827Z,95782.59
2017-05-28T03:26:50.382Z,95778.40
2017-05-28T03:29:18.234Z,95786.52
2017-05-28T03:31:45.834Z,95789.79
2017-05-28T03:37:34.274Z,95802.88
2017-05-28T03:40:01.853Z,95802.37
2017-05-28T03:42:29.396Z,95805.22
2017-05-28T03:44:57.031Z,95808.49
2017-05-28T03:47:24.574Z,95809.46
2017-05-28T03:49:52.136Z,95814.92
2017-05-28T03:52:19.938Z,95812.85
2017-05-28T03:54:47.798Z,95811.34
2017-05-28T03:57:15.346Z,95812.73
2017-05-28T03:59:42.966Z,95813.77
2017-05-28T04:02:10.545Z,95817.34
2017-05-28T04:04:38.554Z,95816.28
2017-05-28T04:07:06.095Z,95819.25
2017-05-28T04:09:33.669Z,95820.06
2017-05-28T04:12:01.232Z,95822.83
2017-05-28T04:14:29.094Z,95808.22
2017-05-28T04:16:56.689Z,95831.02
2017-05-28T04:19:24.274Z,95830.00
2017-05-28T04:21:51.849Z,95834.95
2017-05-28T04:24:19.429Z,95840.02
2017-05-28T04:26:46.973Z,95841.52
2017-05-28T04:29:14.546Z,95852.14
2017-05-28T04:31:42.882Z,95848.27
2017-05-28T04:34:10.451Z,95850.12
2017-05-28T04:36:38.235Z,95852.31
2017-05-28T04:39:05.843Z,95848.83
2017-05-28T04:41:33.384Z,95854.20
2017-05-28T04:44:00.937Z,95840.16
2017-05-28T04:46:28.553Z,95850.83
2017-05-28T04:48:56.370Z,95849.41
2017-05-28T04:51:23.921Z,95859.38
2017-05-28T04:53:51.522Z,95852.07
2017-05-28T04:56:19.070Z,95860.06
2017-05-28T04:58:46.921Z,95859.08
2017-05-28T05:01:14.509Z,95856.63
2017-05-28T05:03:42.124Z,95862.97
2017-05-28T05:06:09.692Z,95864.04
2017-05-28T05:08:37.279Z,95864.73
2017-05-28T05:11:04.830Z,95869.87
2017-05-28T05:13:32.550Z,95869.72
2017-05-28T05:16:00.233Z,95873.69
2017-05-28T05:18:27.795Z,95879.05
2017-05-28T05:20:55.350Z,95876.85
2017-05-28T05:23:23.015Z,95875.34
2017-05-28T05:25:50.562Z,95877.09
2017-05-28T05:28:18.346Z,95877.28
2017-05-28T05:30:46.179Z,95887.58
2017-05-28T05:33:13.962Z,95883.17
2017-05-28T05:35:41.787Z,95884.70
2017-05-28T05:38:09.366Z,95891.05
2017-05-28T05:40:37.161Z,95889.77
2017-05-28T05:43:04.711Z,95896.33
2017-05-28T05:45:32.323Z,95899.73
2017-05-28T05:48:34.371Z,95908.91
2017-05-28T05:51:02.024Z,95906.98
2017-05-28T05:53:29.592Z,95909.39
2017-05-28T05:55:57.154Z,95916.49
2017-05-28T05:58:24.739Z,95911.70
2017-05-28T06:00:52.339Z,95909.33
2017-05-28T06:03:19.881Z,95919.05
2017-05-28T06:05:47.658Z,95924.46
2017-05-28T06:08:15.258Z,95919.48
2017-05-28T06:10:42.812Z,95919.08
2017-05-28T06:13:10.391Z,95922.67
2017-05-28T06:15:37.979Z,95923.50
2017-05-28T06:18:05.770Z,95925.30
2017-05-28T06:20:33.346Z,95926.99
2017-05-28T06:23:02.045Z,95923.46
2017-05-28T06:25:29.836Z,95933.31
2017-05-28T06:27:57.387Z,95931.53
2017-05-28T06:30:24.962Z,95934.30
2017-05-28T06:32:52.494Z,95936.77
2017-05-28T06:35:20.867Z,95932.27
2017-05-28T06:37:48.451Z,95928.58
2017-05-28T06:40:16.006Z,95936.58
2017-05-28T06:42:43.554Z,95933.48
2017-05-28T06:45:11.146Z,95936.53
2017-05-28T06:47:38.947Z,95934.86
2017-05-28T06:50:06.492Z,95938.72
2017-05-28T06:52:34.277Z,95937.84
2017-05-28T06:55:01.999Z,95934.12
2017-05-28T06:57:29.779Z,95942.39
2017-05-28T06:59:57.461Z,95946.86
2017-05-28T07:02:25.113Z,95953.45
2017-05-28T07:04:53.011Z,95952.38
2017-05-28T07:07:20.558Z,95953.06
2017-05-28T07:09:48.175Z,95944.30
2017-05-28T07:12:15.749Z,95947.70
2017-05-28T07:14:43.601Z,95945.34
2017-05-28T07:17:11.235Z,95955.69
2017-05-28T07:19:38.840Z,95959.86
2017-05-28T07:22:06.406Z,95950.26
2017-05-28T07:24:34.097Z,95955.16
2017-05-28T07:27:02.428Z,95951.92
2017-05-28T07:29:29.974Z,95958.53
2017-05-28T07:31:57.590Z,95960.86
2017-05-28T07:34:25.130Z,95958.73
2017-05-28T07:36:52.698Z,95941.34
2017-05-28T07:39:20.293Z,95965.73
2017-05-28T07:41:47.838Z,95961.98
2017-05-28T07:44:15.389Z,95964.38
2017-05-28T07:46:43.572Z,95956.45
2017-05-28T07:49:11.196Z,95968.87
2017-05-28T07:51:38.987Z,95969.42
2017-05-28T07:54:06.571Z,95976.61
2017-05-28T07:56:34.368Z,95969.84
2017-05-28T07:59:02.106Z,95976.87
2017-05-28T08:01:29.686Z,95973.95
2017-05-28T08:03:57.230Z,95983.50
2017-05-28T08:06:25.001Z,95988.52
2017-05-28T08:08:52.594Z,95981.38
2017-05-28T08:11:20.160Z,95990.63
2017-05-28T08:13:47.949Z,95982.53
2017-05-28T08:16:15.868Z,95987.36
2017-05-28T08:18:43.520Z,95988.95
2017-05-28T08:21:11.971Z,95988.86
2017-05-28T08:23:39.714Z,95982.13
2017-05-28T08:26:07.280Z,95983.27
2017-05-28T08:28:34.859Z,95973.88
2017-05-28T08:31:02.470Z,95983.52
2017-05-28T08:33:30.024Z,95992.25
2017-05-28T08:35:58.671Z,95992.06
2017-05-28T08:38:26.284Z,95996.57
2017-05-28T08:40:53.868Z,95990.42
2017-05-28T08:43:21.442Z,95995.34
2017-05-28T08:45:49.039Z,95994.73
2017-05-28T08:48:16.582Z,95994.08
2017-05-28T08:50:44.445Z,95996.50
2017-05-28T08:53:12.083Z,96000.61
2017-05-28T08:55:39.651Z,95993.41
2017-05-28T08:58:07.217Z,95997.42
2017-05-28T09:00:34.822Z,95999.97
2017-05-28T09:03:02.647Z,96006.79
2017-05-28T09:05:30.200Z,95997.67
2017-05-28T09:07:57.802Z,96000.30
2017-05-28T09:10:25.362Z,95994.95
2017-05-28T09:12:52.904Z,96003.92
2017-05-28T09:15:20.515Z,95999.30
2017-05-28T09:17:48.087Z,96006.09
2017-05-28T09:20:15.627Z,95999.06
2017-05-28T09:22:43.203Z,95999.23
2017-05-28T09:25:11.045Z,96007.16
2017-05-28T09:27:38.597Z,96007.54
2017-05-28T09:30:55.434Z,96005.92
2017-05-28T09:33:23.054Z,95994.80
2017-05-28T09:35:50.668Z,96003.05
2017-05-28T09:38:18.267Z,96004.18
2017-05-28T09:40:45.885Z,96002.38
2017-05-28T09:43:13.442Z,96004.43
2017-05-28T09:45:41.004Z,95999.63
2017-05-28T09:48:08.598Z,96008.93
2017-05-28T09:50:36.163Z,96007.80
2017-05-28T09:53:03.941Z,95997.38
2017-05-28T09:55:31.603Z,96000.81
2017-05-28T09:57:59.191Z,96004.20
2017-05-28T10:01:01.683Z,96005.10
2017-05-28T10:03:29.465Z,96007.34
2017-05-28T10:05:57.021Z,95969.80
2017-05-28T10:08:24.626Z,96009.31
2017-05-28T10:10:52.170Z,96010.75
2017-05-28T10:13:19.776Z,96016.25
2017-05-28T10:15:47.478Z,96010.14
2017-05-28T10:18:15.040Z,96015.04
2017-05-28T10:20:42.890Z,96009.05
2017-05-28T10:23:10.498Z,96008.91
2017-05-28T10:25:38.083Z,96003.80
2017-05-28T10:28:05.698Z,96003.98
2017-05-28T10:30:33.634Z,96006.34
2017-05-28T10:33:01.989Z,96011.06
2017-05-28T10:35:29.838Z,96002.17
2017-05-28T10:37:57.511Z,96007.13
2017-05-28T10:40:25.211Z,96012.20
2017-05-28T10:42:53.004Z,96011.88
2017-05-28T10:45:20.735Z,96007.32
2017-05-28T10:47:48.622Z,96019.52
2017-05-28T10:50:16.167Z,96008.34
2017-05-28T10:52:43.757Z,96006.89
2017-05-28T10:55:11.306Z,95995.68
2017-05-28T10:57:39.162Z,96002.05
2017-05-28T11:00:08.260Z,96007.40
2017-05-28T11:02:35.804Z,96007.63
2017-05-28T11:05:03.681Z,96007.44
2017-05-28T11:07:31.254Z,96008.01
2017-05-28T11:09:58.792Z,96006.88
2017-05-28T11:12:26.351Z,96015.41
2017-05-28T11:14:53.918Z,96015.00
2017-05-28T11:17:21.793Z,96004.66
2017-05-28T11:19:49.586Z,96007.53
2017-05-28T11:22:17.667Z,96010.50
2017-05-28T11:24:45.214Z,96007.21
2017-05-28T11:27:12.784Z,96006.17
2017-05-28T11:29:41.203Z,95994.87
2017-05-28T11:32:08.798Z,95965.12
2017-05-28T11:34:36.647Z,95997.70
2017-05-28T11:37:04.253Z,95996.98
2017-05-28T11:39:31.834Z,95999.52
2017-05-28T11:41:59.415Z,96001.52
2017-05-28T11:44:26.963Z,96002.05
2017-05-28T11:46:54.549Z,96004.20
2017-05-28T11:49:22.324Z,96001.75
2017-05-28T11:51:50.103Z,95997.27
2017-05-28T11:54:17.705Z,95974.66
2017-05-28T11:56:45.311Z,95992.80
2017-05-28T11:59:12.850Z,95988.36
2017-05-28T12:01:40.429Z,95980.44
2017-05-28T12:04:07.978Z,95984.11
2017-05-28T12:06:35.535Z,95989.56
2017-05-28T12:09:03.129Z,95980.17
2017-05-28T12:11:30.976Z,95974.53
2017-05-28T12:13:58.544Z,95975.74
2017-05-28T12:16:26.122Z,95972.25
2017-05-28T12:18:53.669Z,95974.39
2017-05-28T12:21:21.524Z,95967.05
2017-05-28T12:23:49.103Z,95973.12
2017-05-28T12:26:16.648Z,95974.73
2017-05-28T12:28:44.945Z,95970.04
2017-05-28T12:31:12.532Z,95972.66
2017-05-28T12:33:40.103Z,95968.55
2017-05-28T12:36:07.648Z,95966.63
2017-05-28T12:38:35.235Z,95966.34
2017-05-28T12:41:02.791Z,95959.77
2017-05-28T12:43:30.390Z,95951.59
2017-05-28T12:45:57.998Z,95962.61
2017-05-28T12:48:25.566Z,95960.17
2017-05-28T12:50:53.474Z,95968.78
2017-05-28T12:53:21.121Z,95971.78
2017-05-28T12:55:48.989Z,95970.33
2017-05-28T12:58:16.762Z,95967.00
2017-05-28T13:00:44.435Z,95983.31
2017-05-28T13:03:12.013Z,95961.91
2017-05-28T13:05:39.779Z,95964.88
2017-05-28T13:08:07.370Z,95981.59
2017-05-28T13:10:34.923Z,95958.17
2017-05-28T13:13:02.826Z,95970.00
2017-05-28T13:15:30.984Z,95966.94
2017-05-28T13:17:58.553Z,95964.24
2017-05-28T13:20:26.170Z,95959.73
2017-05-28T13:22:53.791Z,95962.10
2017-05-28T13:25:21.338Z,95955.59
2017-05-28T13:27:48.891Z,95955.03
2017-05-28T13:30:16.971Z,95952.48
2017-05-28T13:32:44.761Z,95966.28
2017-05-28T13:35:12.310Z,95951.88
2017-05-28T13:37:40.117Z,95940.50
2017-05-28T13:40:07.669Z,95943.83
2017-05-28T13:42:35.225Z,95954.68
2017-05-28T13:45:02.824Z,95948.31
2017-05-28T13:47:30.362Z,95944.19
2017-05-28T13:49:57.918Z,95942.23
2017-05-28T13:52:25.529Z,95935.70
2017-05-28T13:54:53.078Z,95943.41
2017-05-28T13:57:20.957Z,95946.94
2017-05-28T13:59:48.539Z,95950.75
2017-05-28T14:02:16.158Z,95951.52
2017-05-28T14:04:43.697Z,95942.07
2017-05-28T14:07:11.246Z,95938.16
2017-05-28T14:09:38.871Z,95949.76
2017-05-28T14:12:07.261Z,95942.28
2017-05-28T14:14:34.913Z,95950.92
2017-05-28T14:17:02.543Z,95951.30
2017-05-28T14:19:31.283Z,95951.08
2017-05-28T14:21:59.003Z,95953.58
2017-05-28T14:24:26.622Z,95950.45
2017-05-28T14:26:54.174Z,95952.27
2017-05-28T14:29:21.752Z,95963.56
2017-05-28T14:31:49.327Z,95959.70
2017-05-28T14:34:16.870Z,95966.67
2017-05-28T14:36:44.420Z,95952.37
2017-05-28T14:39:12.013Z,95960.09
2017-05-28T14:41:39.576Z,95951.11
2017-05-28T14:44:07.133Z,95958.03
2017-05-28T14:46:34.763Z,95950.40
2017-05-28T14:49:02.675Z,95957.34
2017-05-28T14:51:30.260Z,95951.11
2017-05-28T14:53:57.869Z,95947.91
2017-05-28T14:56:25.764Z,95951.66
2017-05-28T14:58:53.322Z,95951.08
2017-05-28T15:01:21.010Z,95945.14
2017-05-28T15:03:50.143Z,95949.81
2017-05-28T15:06:18.782Z,95946.23
2017-05-28T15:08:46.414Z,95948.92
2017-05-28T15:11:13.961Z,95951.02
2017-05-28T15:13:41.536Z,95952.17
2017-05-28T15:16:09.131Z,95953.27
2017-05-28T15:18:37.789Z,95950.91
2017-05-28T15:21:05.662Z,95962.41
2017-05-28T15:23:33.266Z,95961.34
2017-05-28T15:26:00.835Z,95965.81
2017-05-28T15:28:28.415Z,95943.16
2017-05-28T15:30:55.994Z,95961.41
2017-05-28T15:33:24.474Z,95968.12
2017-05-28T15:35:52.022Z,95960.76
2017-05-28T15:38:20.517Z,95961.66
2017-05-28T15:40:48.067Z,95962.02
2017-05-28T15:43:15.622Z,95971.80
2017-05-28T15:45:43.230Z,95976.73
2017-05-28T15:48:10.786Z,95978.50
2017-05-28T15:50:38.417Z,95976.39
2017-05-28T15:53:06.068Z,95980.12
2017-05-28T15:55:33.742Z,95975.92
2017-05-28T15:58:01.471Z,95987.81
2017-05-28T16:00:29.179Z,95980.88
2017-05-28T16:02:56.958Z,95993.88
2017-05-28T16:05:25.252Z,95993.72
2017-05-28T16:07:52.845Z,95992.19
2017-05-28T16:10:20.394Z,95974.77
2017-05-28T16:12:48.308Z,95993.98
2017-05-28T16:15:15.938Z,95989.50
2017-05-28T16:17:43.554Z,95991.28
2017-05-28T16:20:11.770Z,95994.37
2017-05-28T16:22:39.623Z,95993.66
2017-05-28T16:25:07.198Z,95938.45
2017-05-28T16:27:34.820Z,95992.47
2017-05-28T16:30:02.621Z,95992.69
2017-05-28T16:32:30.339Z,95994.20
2017-05-28T16:34:58.144Z,95994.09
2017-05-28T16:37:25.709Z,95992.78
2017-05-28T16:39:53.474Z,95988.04
2017-05-28T16:42:21.098Z,95982.81
2017-05-28T16:44:48.666Z,95986.72
2017-05-28T16:47:16.295Z,95984.37
2017-05-28T16:49:44.368Z,95983.11
2017-05-28T16:52:12.341Z,95979.00
2017-05-28T16:54:40.602Z,95985.64
2017-05-28T16:57:08.544Z,95988.39
2017-05-28T16:59:36.141Z,95989.98
2017-05-28T17:02:04.042Z,95993.44
2017-05-28T17:04:31.896Z,95997.56
2017-05-28T17:06:59.781Z,96003.17
2017-05-28T17:09:27.402Z,95996.34
2017-05-28T17:11:56.186Z,95994.00
2017-05-28T17:14:23.786Z,96002.54
2017-05-28T17:16:52.941Z,96012.22
2017-05-28T17:19:20.495Z,96001.55
2017-05-28T17:21:48.331Z,96014.74
2017-05-28T17:24:15.942Z,96010.30
2017-05-28T17:26:43.799Z,96005.52
2017-05-28T17:29:11.370Z,96005.89
2017-05-28T17:31:39.306Z,96008.20
2017-05-28T17:34:06.855Z,96006.64
2017-05-28T17:36:34.412Z,96016.95
2017-05-28T17:39:02.009Z,96017.64
2017-05-28T17:41:29.558Z,96017.56
2017-05-28T17:43:57.124Z,96018.09
2017-05-28T17:46:24.736Z,96027.80
2017-05-28T17:48:52.302Z,96019.94
2017-05-28T17:51:19.990Z,96024.69
2017-05-28T17:53:47.651Z,96024.96
2017-05-28T17:56:15.494Z,96023.09
2017-05-28T17:58:43.341Z,96027.17
2017-05-28T18:01:10.929Z,96032.38
2017-05-28T18:03:38.493Z,96048.55
2017-05-28T18:06:06.258Z,96049.21
2017-05-28T18:08:33.877Z,96049.80
2017-05-28T18:11:01.453Z,96042.45
2017-05-28T18:13:29.924Z,96045.64
2017-05-28T18:15:57.550Z,96042.73
2017-05-28T18:18:25.341Z,96044.69
2017-05-28T18:20:53.552Z,96040.41
2017-05-28T18:23:21.187Z,96034.20
2017-05-28T18:25:48.774Z,96038.09
2017-05-28T18:28:16.712Z,96037.20
2017-05-28T18:30:46.178Z,96041.40
2017-05-28T18:33:13.734Z,96044.21
2017-05-28T18:35:43.159Z,96040.33
2017-05-28T18:38:11.922Z,96042.83
2017-05-28T18:40:39.467Z,96040.48
2017-05-28T18:43:07.100Z,96042.41
2017-05-28T18:45:34.684Z,96044.14
2017-05-28T18:48:02.602Z,96038.19
2017-05-28T18:50:30.179Z,96046.08
2017-05-28T18:52:58.566Z,96046.69
2017-05-28T18:55:26.161Z,96048.25
2017-05-28T18:57:53.856Z,96055.48
2017-05-28T19:00:21.585Z,96052.65
2017-05-28T19:02:49.140Z,96053.40
2017-05-28T19:05:16.692Z,96056.72
2017-05-28T19:07:44.415Z,96057.67
2017-05-28T19:10:11.991Z,96065.19
2017-05-28T19:12:39.553Z,96065.77
2017-05-28T19:15:07.134Z,96066.93
2017-05-28T19:17:34.958Z,96056.42
2017-05-28T19:20:02.768Z,96057.18
2017-05-28T19:22:30.367Z,96062.75
2017-05-28T19:24:57.919Z,96063.23
2017-05-28T19:27:25.713Z,96056.91
2017-05-28T19:29:53.336Z,96059.93
2017-05-28T19:32:21.306Z,96062.94
2017-05-28T19:34:48.868Z,96055.82
2017-05-28T19:37:16.751Z,96064.56
2017-05-28T19:39:44.350Z,96066.55
2017-05-28T19:42:12.551Z,96061.88
2017-05-28T19:44:40.353Z,96063.81
2017-05-28T19:47:07.956Z,96057.64
2017-05-28T19:49:35.503Z,96063.65
2017-05-28T19:52:03.318Z,96065.27
2017-05-28T19:54:30.898Z,96066.05
2017-05-28T19:56:58.766Z,96067.56
2017-05-28T19:59:26.307Z,96058.14
2017-05-28T20:01:53.922Z,96057.33
2017-05-28T20:04:21.737Z,96061.77
2017-05-28T20:06:49.294Z,96058.57
2017-05-28T20:09:16.871Z,96060.59
2017-05-28T20:11:44.435Z,96054.16
2017-05-28T20:14:11.974Z,96060.93
2017-05-28T20:16:40.451Z,96066.56
2017-05-28T20:19:07.997Z,96063.03
2017-05-28T20:21:35.555Z,96061.29
2017-05-28T20:24:03.206Z,96059.31
2017-05-28T20:26:30.746Z,96061.70
2017-05-28T20:28:58.299Z,96064.27
2017-05-28T20:31:25.905Z,96058.00
2017-05-28T20:33:53.466Z,96061.28
2017-05-28T20:36:21.035Z,96067.98
2017-05-28T20:38:48.634Z,96066.87
2017-05-28T20:41:16.194Z,96063.96
2017-05-28T20:43:43.746Z,96059.61
2017-05-28T20:46:11.330Z,96068.59
2017-05-28T20:48:39.111Z,96050.75
2017-05-28T20:51:06.646Z,96066.09
2017-05-28T20:53:34.257Z,96072.62
2017-05-28T20:56:04.010Z,96066.34
2017-05-28T20:58:31.811Z,96074.88
2017-05-28T21:01:01.591Z,96074.41
2017-05-28T21:03:31.471Z,96073.86
2017-05-28T21:06:00.671Z,96077.94
2017-05-28T21:08:32.387Z,96077.66
2017-05-28T21:11:08.250Z,96080.38
2017-05-28T21:13:40.764Z,96082.22
2017-05-28T21:16:08.575Z,96074.91
2017-05-28T21:18:36.345Z,96072.72
2017-05-28T21:21:04.262Z,96077.30
2017-05-28T21:23:31.848Z,96077.16
2017-05-28T21:25:59.634Z,96076.53
2017-05-28T21:28:27.191Z,96079.89
2017-05-28T21:30:54.773Z,96076.00
2017-05-28T21:33:22.306Z,96080.57
2017-05-28T21:35:49.879Z,96076.39
2017-05-28T21:38:18.299Z,96078.81
2017-05-28T21:40:45.851Z,96078.44
2017-05-28T21:43:13.736Z,96081.63
2017-05-28T21:45:41.336Z,96085.27
2017-05-28T21:48:08.886Z,96079.44
2017-05-28T21:50:36.451Z,96083.77
2017-05-28T21:53:04.083Z,96077.98
2017-05-28T21:55:31.702Z,96073.69
2017-05-28T21:57:59.491Z,96080.49
2017-05-28T22:00:27.246Z,96053.62
2017-05-28T22:02:54.803Z,96078.22
2017-05-28T22:05:22.355Z,96074.23
2017-05-28T22:07:49.960Z,96077.70
2017-05-28T22:10:17.511Z,96081.86
2017-05-28T22:12:45.297Z,96080.12
2017-05-28T22:15:12.912Z,96076.73
2017-05-28T22:17:40.494Z,96076.05
2017-05-28T22:23:28.686Z,96075.05
2017-05-28T22:26:08.965Z,96078.16
2017-05-28T22:28:36.541Z,96076.14
2017-05-28T22:31:04.134Z,96080.89
2017-05-28T22:33:31.680Z,96078.47
2017-05-28T22:35:59.255Z,96077.73
2017-05-28T22:38:26.843Z,96073.61
2017-05-28T22:40:54.398Z,96065.47
2017-05-28T22:43:21.949Z,96065.70
2017-05-28T22:45:49.563Z,96065.83
2017-05-28T22:48:17.114Z,96064.52
2017-05-28T22:50:44.706Z,96056.67
2017-05-28T22:53:12.307Z,96051.02
2017-05-28T22:55:39.919Z,96053.05
2017-05-28T22:58:07.487Z,96053.41
2017-05-28T23:00:35.276Z,96049.67
2017-05-28T23:03:02.825Z,96053.83
2017-05-28T23:05:30.637Z,96051.78
2017-05-28T23:07:58.221Z,96054.55
2017-05-28T23:10:25.770Z,96029.70
2017-05-28T23:12:53.339Z,96052.97
2017-05-28T23:15:20.995Z,96047.78
2017-05-28T23:17:48.544Z,96045.87
2017-05-28T23:20:16.091Z,96039.39
2017-05-28T23:22:43.681Z,96039.44
2017-05-28T23:25:11.271Z,96035.92
2017-05-28T23:27:38.815Z,96034.60
2017-05-28T23:30:06.824Z,96034.02
2017-05-28T23:32:34.418Z,96031.05
2017-05-28T23:35:01.974Z,96029.16
2017-05-28T23:37:29.569Z,96034.33
2017-05-28T23:39:57.115Z,96033.12
2017-05-28T23:42:24.657Z,96029.17
2017-05-28T23:44:52.571Z,96031.20
2017-05-28T23:47:20.449Z,96027.50
2017-05-28T23:49:48.012Z,96023.78
2017-05-28T23:52:15.585Z,96024.06
2017-05-28T23:54:43.136Z,96022.44
2017-05-28T23:57:10.695Z,96012.95
2017-05-28T23:59:38.307Z,96018.14
